sensor_id;sensor_type;location;lat;lon;timestamp;pressure;altitude;pressure_sealevel;temperature;humidity
76321;BME280;65132;52.088;5.402;2023-04-10T00:00:36;102216.19;;;7.32;85.92
76321;BME280;65132;52.088;5.402;2023-04-10T00:03:03;102202.81;;;7.30;86.33
76321;BME280;65132;52.088;5.402;2023-04-10T00:05:37;102193.00;;;7.29;85.43
76321;BME280;65132;52.088;5.402;2023-04-10T00:08:03;102200.31;;;7.57;82.61
76321;BME280;65132;52.088;5.402;2023-04-10T00:10:30;102187.66;;;7.73;82.28
76321;BME280;65132;52.088;5.402;2023-04-10T00:12:57;102178.19;;;8.23;77.52
76321;BME280;65132;52.088;5.402;2023-04-10T00:15:23;102175.78;;;8.33;77.91
76321;BME280;65132;52.088;5.402;2023-04-10T00:17:52;102182.38;;;8.70;74.35
76321;BME280;65132;52.088;5.402;2023-04-10T00:20:20;102178.31;;;8.77;75.18
76321;BME280;65132;52.088;5.402;2023-04-10T00:22:49;102175.66;;;8.89;74.31
76321;BME280;65132;52.088;5.402;2023-04-10T00:25:15;102168.50;;;9.02;73.57
76321;BME280;65132;52.088;5.402;2023-04-10T00:27:42;102159.78;;;9.11;72.64
76321;BME280;65132;52.088;5.402;2023-04-10T00:30:08;102158.34;;;9.06;73.40
76321;BME280;65132;52.088;5.402;2023-04-10T00:32:34;102147.53;;;9.06;73.26
76321;BME280;65132;52.088;5.402;2023-04-10T00:35:01;102141.44;;;9.16;71.81
76321;BME280;65132;52.088;5.402;2023-04-10T00:37:31;102134.09;;;9.18;71.91
76321;BME280;65132;52.088;5.402;2023-04-10T00:39:57;102137.78;;;9.17;72.77
76321;BME280;65132;52.088;5.402;2023-04-10T00:42:23;102134.97;;;9.19;72.44
76321;BME280;65132;52.088;5.402;2023-04-10T00:44:50;102136.03;;;9.16;72.22
76321;BME280;65132;52.088;5.402;2023-04-10T00:47:16;102124.16;;;9.19;72.33
76321;BME280;65132;52.088;5.402;2023-04-10T00:49:45;102132.25;;;9.19;72.41
76321;BME280;65132;52.088;5.402;2023-04-10T00:52:12;102132.72;;;9.25;71.75
76321;BME280;65132;52.088;5.402;2023-04-10T00:54:41;102124.72;;;9.24;71.72
76321;BME280;65132;52.088;5.402;2023-04-10T00:57:10;102123.22;;;9.32;71.73
76321;BME280;65132;52.088;5.402;2023-04-10T00:59:39;102117.28;;;9.27;72.52
76321;BME280;65132;52.088;5.402;2023-04-10T01:02:08;102118.44;;;9.23;71.96
76321;BME280;65132;52.088;5.402;2023-04-10T01:04:34;102130.88;;;9.26;71.76
76321;BME280;65132;52.088;5.402;2023-04-10T01:10:14;102114.41;;;9.16;72.32
76321;BME280;65132;52.088;5.402;2023-04-10T01:15:17;102110.44;;;9.22;72.17
76321;BME280;65132;52.088;5.402;2023-04-10T01:18:00;102109.88;;;9.17;72.30
76321;BME280;65132;52.088;5.402;2023-04-10T01:20:31;102108.25;;;9.14;72.46
76321;BME280;65132;52.088;5.402;2023-04-10T01:23:30;102099.53;;;9.11;72.66
76321;BME280;65132;52.088;5.402;2023-04-10T01:26:11;102087.63;;;9.13;72.50
76321;BME280;65132;52.088;5.402;2023-04-10T01:29:00;102095.41;;;9.18;72.14
76321;BME280;65132;52.088;5.402;2023-04-10T01:31:47;102092.03;;;9.14;73.01
76321;BME280;65132;52.088;5.402;2023-04-10T01:34:24;102087.75;;;9.12;72.45
76321;BME280;65132;52.088;5.402;2023-04-10T01:36:58;102090.00;;;9.18;72.73
76321;BME280;65132;52.088;5.402;2023-04-10T01:39:26;102084.72;;;9.16;72.35
76321;BME280;65132;52.088;5.402;2023-04-10T01:41:56;102086.13;;;9.22;71.84
76321;BME280;65132;52.088;5.402;2023-04-10T01:44:28;102076.38;;;9.19;71.77
76321;BME280;65132;52.088;5.402;2023-04-10T01:46:55;102079.00;;;9.21;72.12
76321;BME280;65132;52.088;5.402;2023-04-10T01:49:27;102074.03;;;9.15;72.30
76321;BME280;65132;52.088;5.402;2023-04-10T01:51:55;102075.13;;;9.12;72.56
76321;BME280;65132;52.088;5.402;2023-04-10T01:54:25;102075.13;;;9.12;72.21
76321;BME280;65132;52.088;5.402;2023-04-10T01:56:52;102068.41;;;9.05;73.36
76321;BME280;65132;52.088;5.402;2023-04-10T01:59:19;102082.72;;;9.06;72.79
76321;BME280;65132;52.088;5.402;2023-04-10T02:01:46;102067.41;;;9.06;72.77
76321;BME280;65132;52.088;5.402;2023-04-10T02:04:20;102064.47;;;8.97;74.09
76321;BME280;65132;52.088;5.402;2023-04-10T02:07:06;102062.72;;;8.96;73.69
76321;BME280;65132;52.088;5.402;2023-04-10T02:12:10;102059.94;;;8.97;73.65
76321;BME280;65132;52.088;5.402;2023-04-10T02:14:44;102067.28;;;8.95;74.01
76321;BME280;65132;52.088;5.402;2023-04-10T02:17:13;102069.34;;;8.92;73.38
76321;BME280;65132;52.088;5.402;2023-04-10T02:19:41;102058.66;;;8.90;73.58
76321;BME280;65132;52.088;5.402;2023-04-10T02:22:08;102060.16;;;8.94;73.55
76321;BME280;65132;52.088;5.402;2023-04-10T02:24:35;102058.31;;;8.95;74.03
76321;BME280;65132;52.088;5.402;2023-04-10T02:27:02;102058.44;;;8.93;73.89
76321;BME280;65132;52.088;5.402;2023-04-10T02:29:28;102055.41;;;8.98;73.84
76321;BME280;65132;52.088;5.402;2023-04-10T02:31:55;102047.75;;;8.92;73.19
76321;BME280;65132;52.088;5.402;2023-04-10T02:34:21;102053.13;;;8.92;73.57
76321;BME280;65132;52.088;5.402;2023-04-10T02:36:47;102056.78;;;8.91;73.57
76321;BME280;65132;52.088;5.402;2023-04-10T02:39:19;102053.13;;;8.92;73.70
76321;BME280;65132;52.088;5.402;2023-04-10T02:41:45;102060.69;;;8.87;74.01
76321;BME280;65132;52.088;5.402;2023-04-10T02:44:16;102059.91;;;8.85;74.17
76321;BME280;65132;52.088;5.402;2023-04-10T02:46:42;102048.13;;;8.86;73.99
76321;BME280;65132;52.088;5.402;2023-04-10T02:49:12;102050.94;;;8.84;73.54
76321;BME280;65132;52.088;5.402;2023-04-10T02:51:38;102058.16;;;8.84;73.87
76321;BME280;65132;52.088;5.402;2023-04-10T02:54:07;102052.13;;;8.80;74.73
76321;BME280;65132;52.088;5.402;2023-04-10T02:56:33;102062.28;;;8.77;74.38
76321;BME280;65132;52.088;5.402;2023-04-10T02:59:00;102060.88;;;8.84;73.92
76321;BME280;65132;52.088;5.402;2023-04-10T03:01:35;102057.44;;;8.82;73.90
76321;BME280;65132;52.088;5.402;2023-04-10T03:04:01;102060.13;;;8.82;74.00
76321;BME280;65132;52.088;5.402;2023-04-10T03:06:31;102062.94;;;8.80;73.49
76321;BME280;65132;52.088;5.402;2023-04-10T03:08:57;102067.34;;;8.81;73.73
76321;BME280;65132;52.088;5.402;2023-04-10T03:11:23;102059.25;;;8.81;73.56
76321;BME280;65132;52.088;5.402;2023-04-10T03:13:51;102066.03;;;8.74;74.28
76321;BME280;65132;52.088;5.402;2023-04-10T03:16:18;102060.84;;;8.71;74.59
76321;BME280;65132;52.088;5.402;2023-04-10T03:18:45;102060.06;;;8.69;74.77
76321;BME280;65132;52.088;5.402;2023-04-10T03:21:11;102059.09;;;8.70;74.25
76321;BME280;65132;52.088;5.402;2023-04-10T03:23:38;102052.19;;;8.66;74.45
76321;BME280;65132;52.088;5.402;2023-04-10T03:26:06;102054.00;;;8.66;74.56
76321;BME280;65132;52.088;5.402;2023-04-10T03:28:35;102053.34;;;8.62;74.84
76321;BME280;65132;52.088;5.402;2023-04-10T03:31:02;102051.63;;;8.61;74.89
76321;BME280;65132;52.088;5.402;2023-04-10T03:33:29;102043.66;;;8.60;74.92
76321;BME280;65132;52.088;5.402;2023-04-10T03:35:58;102046.53;;;8.57;74.43
76321;BME280;65132;52.088;5.402;2023-04-10T03:38:27;102045.84;;;8.53;75.31
76321;BME280;65132;52.088;5.402;2023-04-10T03:40:53;102041.56;;;8.51;74.80
76321;BME280;65132;52.088;5.402;2023-04-10T03:43:19;102034.72;;;8.45;75.83
76321;BME280;65132;52.088;5.402;2023-04-10T03:45:46;102036.47;;;8.46;74.95
76321;BME280;65132;52.088;5.402;2023-04-10T03:48:12;102038.59;;;8.41;75.75
76321;BME280;65132;52.088;5.402;2023-04-10T03:50:42;102033.94;;;8.43;75.06
76321;BME280;65132;52.088;5.402;2023-04-10T03:53:08;102039.44;;;8.41;75.73
76321;BME280;65132;52.088;5.402;2023-04-10T03:55:36;102028.00;;;8.38;75.12
76321;BME280;65132;52.088;5.402;2023-04-10T03:58:04;102030.69;;;8.38;75.53
76321;BME280;65132;52.088;5.402;2023-04-10T04:00:31;102027.16;;;8.37;75.20
76321;BME280;65132;52.088;5.402;2023-04-10T04:02:58;102019.44;;;8.31;75.16
76321;BME280;65132;52.088;5.402;2023-04-10T04:05:27;102009.66;;;8.30;75.55
76321;BME280;65132;52.088;5.402;2023-04-10T04:07:55;102006.38;;;8.25;75.63
76321;BME280;65132;52.088;5.402;2023-04-10T04:10:21;102012.72;;;8.24;75.59
76321;BME280;65132;52.088;5.402;2023-04-10T04:12:47;102005.13;;;8.17;76.10
76321;BME280;65132;52.088;5.402;2023-04-10T04:15:14;102004.63;;;8.10;76.71
76321;BME280;65132;52.088;5.402;2023-04-10T04:17:40;102004.94;;;8.06;76.76
76321;BME280;65132;52.088;5.402;2023-04-10T04:20:07;102006.78;;;8.05;76.59
76321;BME280;65132;52.088;5.402;2023-04-10T04:22:34;102003.13;;;8.06;76.09
76321;BME280;65132;52.088;5.402;2023-04-10T04:25:00;102004.28;;;8.02;77.23
76321;BME280;65132;52.088;5.402;2023-04-10T04:27:34;102006.19;;;8.00;76.57
76321;BME280;65132;52.088;5.402;2023-04-10T04:30:00;102007.28;;;7.98;77.41
76321;BME280;65132;52.088;5.402;2023-04-10T04:32:28;102010.84;;;7.98;76.42
76321;BME280;65132;52.088;5.402;2023-04-10T04:34:54;102009.09;;;7.97;76.79
76321;BME280;65132;52.088;5.402;2023-04-10T04:37:23;102008.16;;;7.98;76.21
76321;BME280;65132;52.088;5.402;2023-04-10T04:39:52;102005.53;;;7.97;76.64
76321;BME280;65132;52.088;5.402;2023-04-10T04:42:18;101997.44;;;7.97;76.79
76321;BME280;65132;52.088;5.402;2023-04-10T04:44:48;102004.59;;;7.98;76.13
76321;BME280;65132;52.088;5.402;2023-04-10T04:47:14;101999.09;;;7.99;76.07
76321;BME280;65132;52.088;5.402;2023-04-10T04:49:46;101990.25;;;7.97;76.18
76321;BME280;65132;52.088;5.402;2023-04-10T04:52:15;101993.81;;;7.98;76.75
76321;BME280;65132;52.088;5.402;2023-04-10T04:54:44;101996.59;;;7.96;76.99
76321;BME280;65132;52.088;5.402;2023-04-10T04:57:13;101991.69;;;7.89;76.68
76321;BME280;65132;52.088;5.402;2023-04-10T04:59:39;101988.22;;;7.87;77.69
76321;BME280;65132;52.088;5.402;2023-04-10T05:02:06;101995.38;;;7.88;76.49
76321;BME280;65132;52.088;5.402;2023-04-10T05:04:33;101987.38;;;7.86;77.13
76321;BME280;65132;52.088;5.402;2023-04-10T05:07:00;101993.81;;;7.84;78.25
76321;BME280;65132;52.088;5.402;2023-04-10T05:09:26;101988.44;;;7.84;77.16
76321;BME280;65132;52.088;5.402;2023-04-10T05:11:56;101984.97;;;7.82;77.77
76321;BME280;65132;52.088;5.402;2023-04-10T05:14:23;101981.50;;;7.80;77.22
76321;BME280;65132;52.088;5.402;2023-04-10T05:16:49;101974.28;;;7.80;78.45
76321;BME280;65132;52.088;5.402;2023-04-10T05:19:17;101968.81;;;7.82;77.84
76321;BME280;65132;52.088;5.402;2023-04-10T05:21:43;101966.31;;;7.79;77.01
76321;BME280;65132;52.088;5.402;2023-04-10T05:24:09;101982.84;;;7.87;76.30
76321;BME280;65132;52.088;5.402;2023-04-10T05:26:36;101989.38;;;7.97;75.72
76321;BME280;65132;52.088;5.402;2023-04-10T05:29:03;101975.50;;;8.03;76.14
76321;BME280;65132;52.088;5.402;2023-04-10T05:31:31;101975.84;;;8.11;75.46
76321;BME280;65132;52.088;5.402;2023-04-10T05:33:57;101974.59;;;8.16;74.70
76321;BME280;65132;52.088;5.402;2023-04-10T05:36:31;101973.50;;;8.19;74.83
76321;BME280;65132;52.088;5.402;2023-04-10T05:38:59;101972.34;;;8.23;74.71
76321;BME280;65132;52.088;5.402;2023-04-10T05:41:29;101962.16;;;8.28;74.79
76321;BME280;65132;52.088;5.402;2023-04-10T05:43:57;101967.06;;;8.35;76.63
76321;BME280;65132;52.088;5.402;2023-04-10T05:46:23;101975.59;;;8.42;76.34
76321;BME280;65132;52.088;5.402;2023-04-10T05:48:49;101966.34;;;8.46;76.60
76321;BME280;65132;52.088;5.402;2023-04-10T05:51:18;101972.28;;;8.51;76.58
76321;BME280;65132;52.088;5.402;2023-04-10T05:53:45;101969.38;;;8.54;76.83
76321;BME280;65132;52.088;5.402;2023-04-10T05:56:12;101968.00;;;8.61;76.30
76321;BME280;65132;52.088;5.402;2023-04-10T05:58:48;101969.38;;;8.67;73.92
76321;BME280;65132;52.088;5.402;2023-04-10T06:01:14;101964.47;;;8.73;73.25
76321;BME280;65132;52.088;5.402;2023-04-10T06:03:42;101963.63;;;8.85;74.00
76321;BME280;65132;52.088;5.402;2023-04-10T06:06:08;101957.13;;;8.88;71.74
76321;BME280;65132;52.088;5.402;2023-04-10T06:08:36;101965.53;;;8.96;70.43
76321;BME280;65132;52.088;5.402;2023-04-10T06:11:02;101954.75;;;9.08;69.32
76321;BME280;65132;52.088;5.402;2023-04-10T06:13:29;101957.13;;;9.13;68.79
76321;BME280;65132;52.088;5.402;2023-04-10T06:15:58;101955.19;;;9.15;69.45
76321;BME280;65132;52.088;5.402;2023-04-10T06:18:26;101946.88;;;9.18;69.36
76321;BME280;65132;52.088;5.402;2023-04-10T06:20:53;101950.97;;;9.23;68.87
76321;BME280;65132;52.088;5.402;2023-04-10T06:23:19;101937.72;;;9.33;67.35
76321;BME280;65132;52.088;5.402;2023-04-10T06:25:45;101932.72;;;9.39;68.20
76321;BME280;65132;52.088;5.402;2023-04-10T06:28:12;101929.91;;;9.41;68.05
76321;BME280;65132;52.088;5.402;2023-04-10T06:30:38;101924.16;;;9.45;67.64
76321;BME280;65132;52.088;5.402;2023-04-10T06:33:05;101925.78;;;9.48;67.13
76321;BME280;65132;52.088;5.402;2023-04-10T06:35:31;101915.16;;;9.57;66.56
76321;BME280;65132;52.088;5.402;2023-04-10T06:37:58;101919.25;;;9.63;66.90
76321;BME280;65132;52.088;5.402;2023-04-10T06:40:24;101907.16;;;9.68;65.96
76321;BME280;65132;52.088;5.402;2023-04-10T06:42:53;101910.16;;;9.77;65.65
76321;BME280;65132;52.088;5.402;2023-04-10T06:45:19;101905.16;;;9.83;65.67
76321;BME280;65132;52.088;5.402;2023-04-10T06:47:45;101902.97;;;9.88;65.18
76321;BME280;65132;52.088;5.402;2023-04-10T06:50:12;101900.53;;;9.96;64.42
76321;BME280;65132;52.088;5.402;2023-04-10T06:52:38;101893.81;;;10.02;64.23
76321;BME280;65132;52.088;5.402;2023-04-10T06:55:05;101891.88;;;10.04;63.64
76321;BME280;65132;52.088;5.402;2023-04-10T06:57:32;101887.22;;;10.06;64.04
76321;BME280;65132;52.088;5.402;2023-04-10T06:59:59;101885.94;;;10.11;64.41
76321;BME280;65132;52.088;5.402;2023-04-10T07:02:26;101875.94;;;10.12;63.50
76321;BME280;65132;52.088;5.402;2023-04-10T07:04:52;101882.00;;;10.15;64.02
76321;BME280;65132;52.088;5.402;2023-04-10T07:07:19;101866.63;;;10.16;63.06
76321;BME280;65132;52.088;5.402;2023-04-10T07:09:45;101869.09;;;10.19;63.45
76321;BME280;65132;52.088;5.402;2023-04-10T07:12:14;101859.28;;;10.18;63.87
76321;BME280;65132;52.088;5.402;2023-04-10T07:14:40;101851.31;;;10.27;63.59
76321;BME280;65132;52.088;5.402;2023-04-10T07:17:07;101843.81;;;10.31;63.03
76321;BME280;65132;52.088;5.402;2023-04-10T07:19:33;101838.66;;;10.28;63.53
76321;BME280;65132;52.088;5.402;2023-04-10T07:22:01;101842.50;;;10.36;64.49
76321;BME280;65132;52.088;5.402;2023-04-10T07:24:27;101841.91;;;10.55;63.99
76321;BME280;65132;52.088;5.402;2023-04-10T07:26:54;101829.97;;;10.46;63.62
76321;BME280;65132;52.088;5.402;2023-04-10T07:29:30;101816.69;;;10.54;63.46
76321;BME280;65132;52.088;5.402;2023-04-10T07:31:56;101818.53;;;10.54;63.52
76321;BME280;65132;52.088;5.402;2023-04-10T07:34:25;101821.63;;;10.71;62.96
76321;BME280;65132;52.088;5.402;2023-04-10T07:36:54;101820.41;;;10.75;63.81
76321;BME280;65132;52.088;5.402;2023-04-10T07:39:22;101818.81;;;10.73;64.32
76321;BME280;65132;52.088;5.402;2023-04-10T07:41:48;101812.03;;;10.78;62.92
76321;BME280;65132;52.088;5.402;2023-04-10T07:44:17;101818.81;;;10.84;62.83
76321;BME280;65132;52.088;5.402;2023-04-10T07:46:44;101806.38;;;11.04;62.11
76321;BME280;65132;52.088;5.402;2023-04-10T07:49:10;101811.06;;;11.13;62.33
76321;BME280;65132;52.088;5.402;2023-04-10T07:51:37;101807.59;;;11.44;61.87
76321;BME280;65132;52.088;5.402;2023-04-10T07:54:03;101804.97;;;11.64;62.14
76321;BME280;65132;52.088;5.402;2023-04-10T07:56:31;101798.03;;;11.60;61.37
76321;BME280;65132;52.088;5.402;2023-04-10T07:58:59;101791.66;;;11.50;60.93
76321;BME280;65132;52.088;5.402;2023-04-10T08:01:27;101789.06;;;11.71;60.73
76321;BME280;65132;52.088;5.402;2023-04-10T08:04:01;101782.78;;;11.48;61.85
76321;BME280;65132;52.088;5.402;2023-04-10T08:06:32;101785.28;;;11.29;61.26
76321;BME280;65132;52.088;5.402;2023-04-10T08:09:00;101781.97;;;11.26;61.29
76321;BME280;65132;52.088;5.402;2023-04-10T08:11:33;101782.72;;;11.39;61.80
76321;BME280;65132;52.088;5.402;2023-04-10T08:14:03;101778.97;;;11.51;60.79
76321;BME280;65132;52.088;5.402;2023-04-10T08:16:33;101771.06;;;11.59;60.61
76321;BME280;65132;52.088;5.402;2023-04-10T08:19:03;101774.75;;;11.69;60.25
76321;BME280;65132;52.088;5.402;2023-04-10T08:21:30;101782.03;;;11.68;60.98
76321;BME280;65132;52.088;5.402;2023-04-10T08:23:58;101787.97;;;11.94;61.28
76321;BME280;65132;52.088;5.402;2023-04-10T08:26:26;101770.03;;;12.02;59.44
76321;BME280;65132;52.088;5.402;2023-04-10T08:28:55;101778.84;;;11.95;59.26
76321;BME280;65132;52.088;5.402;2023-04-10T08:31:23;101770.34;;;11.68;59.97
76321;BME280;65132;52.088;5.402;2023-04-10T08:33:50;101777.50;;;11.89;60.28
76321;BME280;65132;52.088;5.402;2023-04-10T08:36:17;101759.59;;;11.98;60.38
76321;BME280;65132;52.088;5.402;2023-04-10T08:38:46;101759.28;;;11.80;60.10
76321;BME280;65132;52.088;5.402;2023-04-10T08:41:18;101745.88;;;11.79;60.74
76321;BME280;65132;52.088;5.402;2023-04-10T08:43:46;101746.50;;;12.03;61.56
76321;BME280;65132;52.088;5.402;2023-04-10T08:46:13;101760.34;;;12.00;59.67
76321;BME280;65132;52.088;5.402;2023-04-10T08:48:45;101749.78;;;11.86;60.84
76321;BME280;65132;52.088;5.402;2023-04-10T08:51:19;101754.69;;;11.92;60.72
76321;BME280;65132;52.088;5.402;2023-04-10T08:53:55;101738.75;;;11.98;61.82
76321;BME280;65132;52.088;5.402;2023-04-10T08:56:23;101739.13;;;11.94;61.29
76321;BME280;65132;52.088;5.402;2023-04-10T08:58:50;101731.47;;;11.99;60.71
76321;BME280;65132;52.088;5.402;2023-04-10T09:01:18;101739.47;;;12.00;61.57
76321;BME280;65132;52.088;5.402;2023-04-10T09:03:47;101737.22;;;12.05;60.13
76321;BME280;65132;52.088;5.402;2023-04-10T09:06:13;101732.19;;;12.01;60.04
76321;BME280;65132;52.088;5.402;2023-04-10T09:08:40;101724.94;;;12.22;60.63
76321;BME280;65132;52.088;5.402;2023-04-10T09:11:12;101724.84;;;12.13;59.87
76321;BME280;65132;52.088;5.402;2023-04-10T09:13:45;101724.78;;;12.03;60.32
76321;BME280;65132;52.088;5.402;2023-04-10T09:16:12;101711.69;;;12.08;60.18
76321;BME280;65132;52.088;5.402;2023-04-10T09:18:49;101707.84;;;12.11;61.37
76321;BME280;65132;52.088;5.402;2023-04-10T09:21:19;101707.19;;;12.18;61.54
76321;BME280;65132;52.088;5.402;2023-04-10T09:23:47;101701.72;;;12.09;60.95
76321;BME280;65132;52.088;5.402;2023-04-10T09:26:25;101704.00;;;12.13;61.05
76321;BME280;65132;52.088;5.402;2023-04-10T09:29:04;101699.03;;;12.18;61.33
76321;BME280;65132;52.088;5.402;2023-04-10T09:31:34;101687.06;;;12.21;61.13
76321;BME280;65132;52.088;5.402;2023-04-10T09:36:35;101685.00;;;12.34;60.87
76321;BME280;65132;52.088;5.402;2023-04-10T09:39:04;101669.16;;;12.39;60.38
76321;BME280;65132;52.088;5.402;2023-04-10T09:41:34;101667.19;;;12.50;60.16
76321;BME280;65132;52.088;5.402;2023-04-10T09:44:16;101658.69;;;12.64;60.31
76321;BME280;65132;52.088;5.402;2023-04-10T09:46:43;101657.28;;;12.70;60.69
76321;BME280;65132;52.088;5.402;2023-04-10T09:49:14;101652.00;;;12.68;59.81
76321;BME280;65132;52.088;5.402;2023-04-10T09:51:41;101645.41;;;12.71;59.89
76321;BME280;65132;52.088;5.402;2023-04-10T09:54:07;101650.25;;;12.67;59.36
76321;BME280;65132;52.088;5.402;2023-04-10T09:56:38;101646.09;;;12.63;58.38
76321;BME280;65132;52.088;5.402;2023-04-10T09:59:06;101629.41;;;12.77;58.87
76321;BME280;65132;52.088;5.402;2023-04-10T10:01:38;101636.75;;;12.86;58.76
76321;BME280;65132;52.088;5.402;2023-04-10T10:04:09;101633.59;;;12.81;58.98
76321;BME280;65132;52.088;5.402;2023-04-10T10:06:38;101631.16;;;12.88;58.44
76321;BME280;65132;52.088;5.402;2023-04-10T10:09:04;101631.44;;;12.94;58.92
76321;BME280;65132;52.088;5.402;2023-04-10T10:11:36;101623.75;;;12.99;58.26
76321;BME280;65132;52.088;5.402;2023-04-10T10:14:14;101617.78;;;13.15;58.80
76321;BME280;65132;52.088;5.402;2023-04-10T10:16:46;101614.81;;;13.28;58.51
76321;BME280;65132;52.088;5.402;2023-04-10T10:19:20;101618.38;;;13.18;57.17
76321;BME280;65132;52.088;5.402;2023-04-10T10:21:48;101610.50;;;13.25;57.93
76321;BME280;65132;52.088;5.402;2023-04-10T10:24:18;101602.03;;;13.28;57.31
76321;BME280;65132;52.088;5.402;2023-04-10T10:26:50;101593.88;;;13.66;57.93
76321;BME280;65132;52.088;5.402;2023-04-10T10:29:25;101582.56;;;13.61;57.27
76321;BME280;65132;52.088;5.402;2023-04-10T10:31:54;101578.41;;;13.67;57.05
76321;BME280;65132;52.088;5.402;2023-04-10T10:34:20;101575.53;;;13.59;57.06
76321;BME280;65132;52.088;5.402;2023-04-10T10:36:47;101563.50;;;13.71;56.69
76321;BME280;65132;52.088;5.402;2023-04-10T10:44:50;101560.72;;;13.99;56.37
76321;BME280;65132;52.088;5.402;2023-04-10T10:47:26;101555.69;;;13.95;56.93
76321;BME280;65132;52.088;5.402;2023-04-10T10:49:55;101554.03;;;14.11;56.38
76321;BME280;65132;52.088;5.402;2023-04-10T10:55:27;101539.25;;;14.78;55.51
76321;BME280;65132;52.088;5.402;2023-04-10T10:58:02;101539.53;;;15.27;56.68
76321;BME280;65132;52.088;5.402;2023-04-10T11:05:49;101525.44;;;14.62;54.79
76321;BME280;65132;52.088;5.402;2023-04-10T11:08:16;101527.88;;;14.82;55.01
76321;BME280;65132;52.088;5.402;2023-04-10T11:11:06;101519.53;;;15.19;54.43
76321;BME280;65132;52.088;5.402;2023-04-10T11:13:34;101508.00;;;15.25;53.52
76321;BME280;65132;52.088;5.402;2023-04-10T11:16:02;101507.78;;;15.18;52.75
76321;BME280;65132;52.088;5.402;2023-04-10T11:21:31;101499.53;;;14.93;54.33
76321;BME280;65132;52.088;5.402;2023-04-10T11:31:44;101474.19;;;15.00;54.30
76321;BME280;65132;52.088;5.402;2023-04-10T11:34:13;101463.34;;;15.43;54.64
76321;BME280;65132;52.088;5.402;2023-04-10T11:36:50;101469.13;;;15.66;54.38
76321;BME280;65132;52.088;5.402;2023-04-10T11:39:18;101456.69;;;15.46;54.28
76321;BME280;65132;52.088;5.402;2023-04-10T11:41:47;101468.00;;;15.33;54.80
76321;BME280;65132;52.088;5.402;2023-04-10T11:44:16;101463.72;;;15.31;54.42
76321;BME280;65132;52.088;5.402;2023-04-10T11:46:44;101438.34;;;15.30;54.45
76321;BME280;65132;52.088;5.402;2023-04-10T11:49:21;101438.94;;;15.68;53.49
76321;BME280;65132;52.088;5.402;2023-04-10T11:51:50;101435.19;;;15.77;53.66
76321;BME280;65132;52.088;5.402;2023-04-10T11:54:22;101432.91;;;15.90;54.94
76321;BME280;65132;52.088;5.402;2023-04-10T11:57:04;101419.34;;;15.80;53.58
76321;BME280;65132;52.088;5.402;2023-04-10T11:59:32;101435.19;;;15.77;54.30
76321;BME280;65132;52.088;5.402;2023-04-10T12:02:16;101417.94;;;16.10;53.66
76321;BME280;65132;52.088;5.402;2023-04-10T12:04:56;101414.25;;;16.27;53.35
76321;BME280;65132;52.088;5.402;2023-04-10T12:07:27;101412.91;;;16.39;52.89
76321;BME280;65132;52.088;5.402;2023-04-10T12:09:57;101399.53;;;16.12;53.32
76321;BME280;65132;52.088;5.402;2023-04-10T12:12:36;101398.31;;;16.14;53.09
76321;BME280;65132;52.088;5.402;2023-04-10T12:15:28;101386.59;;;16.38;52.78
76321;BME280;65132;52.088;5.402;2023-04-10T12:17:57;101392.56;;;16.33;52.61
76321;BME280;65132;52.088;5.402;2023-04-10T12:20:23;101389.13;;;16.31;52.46
76321;BME280;65132;52.088;5.402;2023-04-10T12:22:57;101377.72;;;16.36;52.89
76321;BME280;65132;52.088;5.402;2023-04-10T12:25:26;101376.50;;;16.22;52.29
76321;BME280;65132;52.088;5.402;2023-04-10T12:27:58;101381.94;;;16.14;52.77
76321;BME280;65132;52.088;5.402;2023-04-10T12:30:24;101381.28;;;16.20;53.10
76321;BME280;65132;52.088;5.402;2023-04-10T12:32:51;101362.50;;;16.25;52.57
76321;BME280;65132;52.088;5.402;2023-04-10T12:35:18;101361.00;;;16.39;52.94
76321;BME280;65132;52.088;5.402;2023-04-10T12:37:49;101355.66;;;16.21;53.20
76321;BME280;65132;52.088;5.402;2023-04-10T12:40:20;101340.50;;;16.27;52.54
76321;BME280;65132;52.088;5.402;2023-04-10T12:42:49;101338.28;;;16.22;53.59
76321;BME280;65132;52.088;5.402;2023-04-10T12:45:15;101332.59;;;16.08;52.71
76321;BME280;65132;52.088;5.402;2023-04-10T12:47:49;101333.13;;;16.19;53.01
76321;BME280;65132;52.088;5.402;2023-04-10T12:50:17;101333.34;;;16.26;53.00
76321;BME280;65132;52.088;5.402;2023-04-10T12:52:45;101321.84;;;16.14;53.33
76321;BME280;65132;52.088;5.402;2023-04-10T12:55:26;101325.97;;;16.10;53.19
76321;BME280;65132;52.088;5.402;2023-04-10T12:57:52;101319.13;;;15.98;52.48
76321;BME280;65132;52.088;5.402;2023-04-10T13:00:19;101313.13;;;15.95;53.69
76321;BME280;65132;52.088;5.402;2023-04-10T13:02:46;101306.28;;;15.91;52.63
76321;BME280;65132;52.088;5.402;2023-04-10T13:05:14;101295.19;;;15.84;54.03
76321;BME280;65132;52.088;5.402;2023-04-10T13:07:40;101280.84;;;15.82;54.00
76321;BME280;65132;52.088;5.402;2023-04-10T13:10:08;101273.00;;;15.79;53.22
76321;BME280;65132;52.088;5.402;2023-04-10T13:12:37;101265.31;;;15.75;52.79
76321;BME280;65132;52.088;5.402;2023-04-10T13:15:06;101266.69;;;15.79;53.13
76321;BME280;65132;52.088;5.402;2023-04-10T13:17:35;101270.28;;;15.79;52.95
76321;BME280;65132;52.088;5.402;2023-04-10T13:20:04;101269.06;;;15.74;53.46
76321;BME280;65132;52.088;5.402;2023-04-10T13:22:32;101264.63;;;15.73;53.60
76321;BME280;65132;52.088;5.402;2023-04-10T13:24:58;101271.78;;;15.74;53.78
76321;BME280;65132;52.088;5.402;2023-04-10T13:27:24;101259.88;;;15.75;54.36
76321;BME280;65132;52.088;5.402;2023-04-10T13:29:54;101255.94;;;15.77;53.67
76321;BME280;65132;52.088;5.402;2023-04-10T13:32:20;101249.63;;;15.77;54.10
76321;BME280;65132;52.088;5.402;2023-04-10T13:34:46;101278.94;;;15.67;54.62
76321;BME280;65132;52.088;5.402;2023-04-10T13:37:16;101237.47;;;15.55;56.12
76321;BME280;65132;52.088;5.402;2023-04-10T13:39:43;101231.50;;;15.51;56.65